WXForecasting.com
Aberdeen, SD - Weather Station Data
 
Daily Summary for May 27, 2017 Units:  English    Metric   Both
« Previous Day
Next Day »
Daily Weekly Monthly Yearly Custom
  Current: High: Low: Average:
Temperature: 72.7 °F 79.4 °F 52.6 °F 65.5 °F
Dew Point: 42.0 °F 49.0 °F 38.0 °F 44.9 °F
Humidity: 33 % 77 % 23 % 52 %
Wind Speed: 3.0 mph 12.0 mph 0.0 mph 3.9 mph
Wind Gust: 8.0 mph 25.0 mph - -
Wind:NNW - - SW
Pressure: 29.78 in 29.89 in 29.78 in -
Precipitation: 0.00 in      
Historical Graphs
 
 
Tabular Data for May 27, 2017
Time Temperature Dew Point Pressure Wind Wind Speed Wind Gust Humidity Rainfall Rate (Hourly) solar Conditions
00:04 57.0 °F 46.0 °F 29.85 in NW 1.0 mph 1.0 mph 68 % 0.00 in 0 W/m2
00:20 56.6 °F 46.0 °F 29.85 in Calm     68 % 0.00 in 0 W/m2
00:34 55.9 °F 46.0 °F 29.86 in Calm     70 % 0.00 in 0 W/m2
00:49 55.9 °F 47.0 °F 29.86 in Calm   1.0 mph 71 % 0.00 in 0 W/m2
01:04 55.5 °F 46.0 °F 29.85 in Calm     71 % 0.00 in 0 W/m2
01:19 54.9 °F 46.0 °F 29.85 in Calm     73 % 0.00 in 0 W/m2
01:34 54.3 °F 46.0 °F 29.85 in Calm     73 % 0.00 in 0 W/m2
01:49 53.5 °F 45.0 °F 29.86 in Calm     74 % 0.00 in 0 W/m2
02:04 52.9 °F 46.0 °F 29.86 in Calm     77 % 0.00 in 0 W/m2
02:19 53.1 °F 46.0 °F 29.86 in Calm     77 % 0.00 in 0 W/m2
02:35 52.8 °F 45.0 °F 29.86 in Calm     76 % 0.00 in 0 W/m2
02:49 52.6 °F 45.0 °F 29.86 in Calm   1.0 mph 76 % 0.00 in 0 W/m2
03:04 52.6 °F 45.0 °F 29.87 in Calm     76 % 0.00 in 0 W/m2
03:19 53.3 °F 46.0 °F 29.86 in Calm     76 % 0.00 in 0 W/m2
03:34 54.4 °F 46.0 °F 29.86 in Calm   1.0 mph 74 % 0.00 in 0 W/m2
03:50 54.7 °F 46.0 °F 29.86 in Calm     72 % 0.00 in 0 W/m2
04:04 54.6 °F 46.0 °F 29.86 in Calm   1.0 mph 72 % 0.00 in 0 W/m2
04:20 54.3 °F 46.0 °F 29.85 in Calm     73 % 0.00 in 0 W/m2
04:35 53.7 °F 45.0 °F 29.85 in Calm     73 % 0.00 in 0 W/m2
04:50 53.4 °F 45.0 °F 29.85 in Calm   1.0 mph 74 % 0.00 in 0 W/m2
05:05 53.5 °F 45.0 °F 29.86 in Calm   1.0 mph 74 % 0.00 in 0 W/m2
05:20 53.7 °F 46.0 °F 29.85 in Calm   1.0 mph 74 % 0.00 in 0 W/m2
05:35 53.8 °F 45.0 °F 29.86 in Calm   2.0 mph 73 % 0.00 in 0 W/m2
05:50 54.0 °F 46.0 °F 29.87 in NW 1.0 mph 2.0 mph 73 % 0.00 in 0 W/m2
06:05 54.2 °F 45.0 °F 29.87 in West 2.0 mph 4.0 mph 72 % 0.00 in 0 W/m2
06:20 54.2 °F 45.0 °F 29.88 in SW 2.0 mph 5.0 mph 72 % 0.00 in 12 W/m2
06:35 54.5 °F 46.0 °F 29.88 in SW 1.0 mph 2.0 mph 73 % 0.00 in 23 W/m2
06:50 55.2 °F 46.0 °F 29.89 in SW 1.0 mph 3.0 mph 72 % 0.00 in 49 W/m2
07:05 55.3 °F 47.0 °F 29.87 in Calm   3.0 mph 73 % 0.00 in 90 W/m2
07:20 55.7 °F 47.0 °F 29.87 in Calm   4.0 mph 73 % 0.00 in 77 W/m2
07:35 56.5 °F 48.0 °F 29.87 in Calm   4.0 mph 72 % 0.00 in 83 W/m2
07:50 58.1 °F 48.0 °F 29.87 in SW 3.0 mph 7.0 mph 69 % 0.00 in 359 W/m2
08:05 60.1 °F 48.0 °F 29.87 in WSW 4.0 mph 10.0 mph 65 % 0.00 in 163 W/m2
08:20 62.7 °F 47.0 °F 29.87 in SW 6.0 mph 11.0 mph 56 % 0.00 in 213 W/m2
08:36 64.2 °F 46.0 °F 29.88 in SW 7.0 mph 9.0 mph 52 % 0.00 in 207 W/m2
08:50 65.3 °F 47.0 °F 29.88 in WSW 4.0 mph 9.0 mph 52 % 0.00 in 322 W/m2
09:05 65.6 °F 47.0 °F 29.88 in SW 5.0 mph 8.0 mph 51 % 0.00 in 195 W/m2
09:20 65.8 °F 46.0 °F 29.89 in SW 4.0 mph 11.0 mph 50 % 0.00 in 287 W/m2
09:35 66.2 °F 47.0 °F 29.89 in SW 6.0 mph 14.0 mph 51 % 0.00 in 253 W/m2
09:50 66.1 °F 48.0 °F 29.89 in SW 6.0 mph 12.0 mph 52 % 0.00 in 366 W/m2
10:05 67.7 °F 49.0 °F 29.88 in SW 5.0 mph 14.0 mph 52 % 0.00 in 334 W/m2
10:20 68.2 °F 48.0 °F 29.89 in West 10.0 mph 15.0 mph 49 % 0.00 in 339 W/m2
10:35 68.0 °F 47.0 °F 29.89 in WSW 9.0 mph 15.0 mph 48 % 0.00 in 341 W/m2
10:50 68.2 °F 49.0 °F 29.88 in WNW 3.0 mph 18.0 mph 50 % 0.00 in 399 W/m2
11:05 69.0 °F 48.0 °F 29.89 in WSW 9.0 mph 25.0 mph 47 % 0.00 in 348 W/m2
11:20 68.9 °F 48.0 °F 29.88 in WSW 9.0 mph 21.0 mph 48 % 0.00 in 374 W/m2
11:36 69.3 °F 48.0 °F 29.88 in WSW 7.0 mph 22.0 mph 47 % 0.00 in 417 W/m2
11:51 69.9 °F 49.0 °F 29.88 in SW 9.0 mph 24.0 mph 47 % 0.00 in 506 W/m2
12:06 71.4 °F 49.0 °F 29.88 in SSW 10.0 mph 21.0 mph 45 % 0.00 in 615 W/m2
12:21 71.0 °F 48.0 °F 29.87 in SW 4.0 mph 21.0 mph 44 % 0.00 in 541 W/m2
12:51 72.8 °F 47.0 °F 29.87 in SW 7.0 mph 21.0 mph 40 % 0.00 in 930 W/m2
13:06 74.8 °F 47.0 °F 29.86 in SSW 6.0 mph 19.0 mph 37 % 0.00 in 947 W/m2
13:21 74.1 °F 46.0 °F 29.86 in SW 10.0 mph 19.0 mph 37 % 0.00 in 234 W/m2
13:36 75.3 °F 45.0 °F 29.85 in SSW 6.0 mph 17.0 mph 34 % 0.00 in 158 W/m2
13:51 75.2 °F 44.0 °F 29.84 in SW 8.0 mph 20.0 mph 33 % 0.00 in 274 W/m2
14:06 75.6 °F 44.0 °F 29.84 in WSW 10.0 mph 15.0 mph 33 % 0.00 in 297 W/m2
14:21 74.2 °F 44.0 °F 29.83 in WSW 7.0 mph 17.0 mph 34 % 0.00 in 146 W/m2
14:36 76.5 °F 45.0 °F 29.83 in WSW 10.0 mph 21.0 mph 33 % 0.00 in 1049 W/m2
14:51 76.0 °F 44.0 °F 29.83 in SW 11.0 mph 18.0 mph 32 % 0.00 in 1039 W/m2
15:06 76.8 °F 43.0 °F 29.82 in WSW 4.0 mph 17.0 mph 30 % 0.00 in 329 W/m2
15:21 75.6 °F 43.0 °F 29.81 in SW 7.0 mph 17.0 mph 31 % 0.00 in 281 W/m2
15:36 78.1 °F 44.0 °F 29.81 in SW 6.0 mph 18.0 mph 30 % 0.00 in 1016 W/m2
15:51 78.5 °F 42.0 °F 29.81 in NW 4.0 mph 18.0 mph 27 % 0.00 in 1021 W/m2
16:06 78.7 °F 43.0 °F 29.81 in SW 4.0 mph 15.0 mph 28 % 0.00 in 918 W/m2
16:22 79.4 °F 42.0 °F 29.80 in SW 7.0 mph 18.0 mph 26 % 0.00 in 874 W/m2
16:36 79.3 °F 41.0 °F 29.80 in WSW 4.0 mph 16.0 mph 25 % 0.00 in 737 W/m2
16:51 79.1 °F 39.0 °F 29.79 in NE 4.0 mph 18.0 mph 24 % 0.00 in 703 W/m2
17:06 77.3 °F 39.0 °F 29.79 in WSW 3.0 mph 13.0 mph 25 % 0.00 in 104 W/m2
17:21 78.8 °F 38.0 °F 29.79 in SW 12.0 mph 21.0 mph 23 % 0.00 in 624 W/m2
17:36 77.5 °F 39.0 °F 29.78 in East 4.0 mph 16.0 mph 25 % 0.00 in 158 W/m2
17:51 78.0 °F 40.0 °F 29.78 in SW 5.0 mph 18.0 mph 26 % 0.00 in 598 W/m2
18:06 78.7 °F 40.0 °F 29.78 in WSW 5.0 mph 13.0 mph 25 % 0.00 in 497 W/m2
18:21 78.1 °F 40.0 °F 29.79 in East 4.0 mph 22.0 mph 25 % 0.00 in 218 W/m2
18:36 75.9 °F 42.0 °F 29.79 in East 5.0 mph 17.0 mph 30 % 0.00 in 229 W/m2
18:51 76.6 °F 40.0 °F 29.78 in NW 6.0 mph 15.0 mph 27 % 0.00 in 357 W/m2
19:06 76.2 °F 40.0 °F 29.78 in WSW 8.0 mph 21.0 mph 27 % 0.00 in 44 W/m2
19:21 75.4 °F 39.0 °F 29.78 in SW 7.0 mph 12.0 mph 27 % 0.00 in 47 W/m2
19:36 74.3 °F 41.0 °F 29.79 in NW 5.0 mph 12.0 mph 30 % 0.00 in 79 W/m2
19:51 72.7 °F 42.0 °F 29.78 in NNW 3.0 mph 8.0 mph 33 % 0.00 in 49 W/m2
Compliments of Weather Underground - 1 mb

27 Visitors online right now
Max visitors today: 86 at 06:38 pm EDT
This month: 90 at 05-12-2017 04:57 pm EDT
This year: 96 at 04-27-2017 04:01 pm EDT
All time: 104 at 01-04-2012 03:34 am EST
See Who is Online